Time;durP1;ratioP1;P1;durP2;ratioP2;P2;SDS_P1;SDS_P2;PMS_P1;PMS_P2;Temp;Humidity;BMP_temperature;BMP_pressure;BME280_temperature;BME280_humidity;BME280_pressure;Samples;Min_cycle;Max_cycle;Signal;HPM_P1;HPM_P2
2023/04/21 00:00:46;;;;;;;9.32;7.53;;;;;;;11.27;55.67;101443.94;5107928;28;20056;-69
2023/04/21 00:03:15;;;;;;;12.32;8.02;;;;;;;11.27;56.06;101432.38;5102258;28;20040;-68
2023/04/21 00:05:43;;;;;;;9.07;7.22;;;;;;;11.26;56.11;101423.47;5099929;28;20119;-69
2023/04/21 00:08:10;;;;;;;8.63;6.65;;;;;;;11.18;56.04;101412.94;5110999;28;20094;-69
2023/04/21 00:10:38;;;;;;;9.98;7.38;;;;;;;11.24;56.03;101416.66;5102381;28;20545;-69
2023/04/21 00:13:06;;;;;;;9.15;6.97;;;;;;;11.24;56.36;101419.34;5098523;28;20044;-69
2023/04/21 00:15:34;;;;;;;12.10;8.80;;;;;;;11.23;56.58;101413.13;5104730;28;20055;-69
2023/04/21 00:18:02;;;;;;;10.27;7.97;;;;;;;11.22;56.30;101407.97;5100124;28;20109;-69
2023/04/21 00:20:32;;;;;;;10.00;8.00;;;;;;;11.22;56.38;101405.25;5101738;28;20115;-68
2023/04/21 00:23:00;;;;;;;11.05;7.55;;;;;;;11.22;56.20;101402.56;5106211;28;20118;-69
2023/04/21 00:25:27;;;;;;;10.77;8.68;;;;;;;11.22;56.54;101406.09;5103919;28;20527;-69
2023/04/21 00:27:55;;;;;;;10.02;8.63;;;;;;;11.22;56.56;101386.44;5090294;28;20072;-68
2023/04/21 00:30:23;;;;;;;11.52;9.02;;;;;;;11.20;57.19;101394.72;5100485;28;20051;-68
2023/04/21 00:32:51;;;;;;;11.93;9.23;;;;;;;11.20;57.26;101393.88;5102400;28;20044;-68
2023/04/21 00:35:19;;;;;;;10.38;8.55;;;;;;;11.19;56.88;101400.31;5104307;28;20477;-68
2023/04/21 00:37:49;;;;;;;11.52;8.43;;;;;;;11.19;56.68;101405.69;5102517;28;20071;-68
2023/04/21 00:40:16;;;;;;;10.63;8.20;;;;;;;11.18;56.58;101394.09;5099842;28;20070;-68
2023/04/21 00:42:44;;;;;;;10.50;8.40;;;;;;;11.18;56.65;101388.72;5102127;28;20040;-68
2023/04/21 00:45:14;;;;;;;11.85;7.88;;;;;;;11.17;56.39;101388.94;5101275;28;20048;-68
2023/04/21 00:47:41;;;;;;;10.70;7.50;;;;;;;11.14;56.40;101383.97;5089977;28;20044;-68
2023/04/21 00:50:11;;;;;;;11.90;8.20;;;;;;;11.16;56.58;101389.97;5098165;28;20064;-68
2023/04/21 00:52:40;;;;;;;10.32;8.60;;;;;;;11.15;56.64;101393.69;5104775;28;20140;-68
2023/04/21 00:55:10;;;;;;;9.10;7.50;;;;;;;11.14;56.57;101395.56;5099831;28;20051;-68
2023/04/21 00:57:38;;;;;;;10.98;8.70;;;;;;;11.05;56.71;101378.00;5101349;28;20044;-68
2023/04/21 01:00:09;;;;;;;11.38;7.47;;;;;;;11.12;56.66;101380.69;5092141;28;20112;-68
2023/04/21 01:02:37;;;;;;;12.73;8.18;;;;;;;11.12;57.03;101388.75;5109442;28;20048;-68
2023/04/21 01:05:07;;;;;;;10.25;8.70;;;;;;;11.08;57.38;101381.09;5085374;28;20437;-67
2023/04/21 01:07:35;;;;;;;11.82;9.70;;;;;;;11.04;57.96;101366.41;5087977;28;20050;-67
2023/04/21 01:10:04;;;;;;;11.40;9.18;;;;;;;11.06;57.66;101364.34;5098615;28;20075;-68
2023/04/21 01:12:34;;;;;;;12.48;9.20;;;;;;;11.04;57.45;101371.81;5097699;28;20055;-68
2023/04/21 01:15:02;;;;;;;13.85;10.00;;;;;;;11.04;58.11;101358.34;5090826;28;20112;-68
2023/04/21 01:17:30;;;;;;;12.43;9.55;;;;;;;11.01;57.87;101353.41;5097463;28;20054;-67
2023/04/21 01:20:01;;;;;;;14.85;9.43;;;;;;;11.03;57.59;101351.31;5087892;28;20391;-67
2023/04/21 01:22:31;;;;;;;11.73;9.40;;;;;;;11.03;57.29;101348.63;5094345;28;20048;-67
2023/04/21 01:24:59;;;;;;;12.45;8.52;;;;;;;11.03;57.38;101345.13;5093658;28;20071;-68
2023/04/21 01:27:27;;;;;;;10.68;8.95;;;;;;;11.02;57.63;101346.16;5085898;28;20127;-67
2023/04/21 01:29:55;;;;;;;10.88;9.52;;;;;;;11.02;57.44;101349.66;5110094;28;20083;-68
2023/04/21 01:32:25;;;;;;;11.98;8.75;;;;;;;11.00;57.33;101346.38;5097935;28;20082;-68
2023/04/21 01:34:54;;;;;;;12.23;9.50;;;;;;;11.01;57.50;101345.31;5096270;28;20412;-68
2023/04/21 01:37:24;;;;;;;13.90;9.88;;;;;;;11.01;57.80;101353.41;5098431;28;20080;-67
2023/04/21 01:39:56;;;;;;;13.07;9.40;;;;;;;11.01;57.70;101344.50;5100935;28;20054;-68
2023/04/21 01:42:26;;;;;;;12.20;9.57;;;;;;;11.00;57.46;101348.22;5093367;28;20067;-67
2023/04/21 01:44:54;;;;;;;12.75;9.73;;;;;;;10.95;57.49;101332.72;5097253;28;20048;-68
2023/04/21 01:47:24;;;;;;;12.73;9.40;;;;;;;10.95;58.16;101332.72;5099284;28;20536;-67
2023/04/21 01:49:52;;;;;;;13.27;9.80;;;;;;;10.97;57.89;101330.66;5099324;28;20087;-68
2023/04/21 01:52:20;;;;;;;15.10;10.20;;;;;;;10.97;57.87;101330.66;5091170;28;20127;-68
2023/04/21 01:54:49;;;;;;;14.45;10.40;;;;;;;10.96;58.28;101312.03;5095877;28;20138;-68
2023/04/21 01:57:18;;;;;;;10.10;8.93;;;;;;;10.95;57.90;101308.53;5105142;28;20135;-68
2023/04/21 01:59:47;;;;;;;14.80;10.68;;;;;;;10.96;58.29;101306.66;5095766;28;20048;-67
2023/04/21 02:02:15;;;;;;;10.77;8.65;;;;;;;10.96;57.78;101317.41;5093157;28;20638;-67
2023/04/21 02:04:43;;;;;;;12.82;8.93;;;;;;;10.96;57.98;101315.56;5089811;28;20059;-67
2023/04/21 02:07:10;;;;;;;13.57;9.88;;;;;;;10.96;57.78;101312.03;5095744;28;20134;-67
2023/04/21 02:09:38;;;;;;;11.48;9.25;;;;;;;10.96;57.79;101310.19;5103136;28;20052;-67
2023/04/21 02:12:06;;;;;;;14.00;10.10;;;;;;;10.97;57.85;101309.13;5096662;28;20066;-67
2023/04/21 02:14:36;;;;;;;13.13;9.60;;;;;;;10.96;57.95;101312.03;5091898;28;20048;-67
2023/04/21 02:17:04;;;;;;;12.75;8.82;;;;;;;10.95;58.00;101305.84;5091773;28;20130;-67
2023/04/21 02:19:32;;;;;;;11.88;9.63;;;;;;;10.94;58.11;101309.56;5102311;28;20107;-67
2023/04/21 02:22:00;;;;;;;14.15;8.80;;;;;;;10.93;58.01;101305.22;5093709;28;20456;-67
2023/04/21 02:24:28;;;;;;;11.38;9.30;;;;;;;10.93;58.08;101299.03;5103474;28;20044;-67
2023/04/21 02:26:57;;;;;;;14.45;9.73;;;;;;;10.93;57.94;101302.53;5095146;28;20513;-67
2023/04/21 02:29:24;;;;;;;15.07;11.05;;;;;;;10.93;57.99;101299.84;5097072;28;20202;-67
2023/04/21 02:31:53;;;;;;;11.60;8.50;;;;;;;10.93;57.90;101293.63;5092960;28;20058;-66
2023/04/21 02:34:37;;;;;;;12.25;9.52;;;;;;;10.91;58.12;101296.53;5101292;28;20071;-66
2023/04/21 02:37:05;;;;;;;13.45;9.60;;;;;;;10.92;58.21;101300.06;5099127;28;20135;-66
2023/04/21 02:39:33;;;;;;;12.15;9.05;;;;;;;10.90;57.64;101297.59;5098806;28;20116;-67
2023/04/21 02:42:00;;;;;;;11.93;8.88;;;;;;;10.90;57.95;101292.19;5095486;28;20058;-67
2023/04/21 02:44:28;;;;;;;15.15;9.80;;;;;;;10.89;58.22;101295.94;5101942;28;20169;-66
2023/04/21 02:46:57;;;;;;;14.88;9.18;;;;;;;10.88;57.97;101298.84;5096804;28;20643;-69
2023/04/21 02:49:25;;;;;;;13.15;9.48;;;;;;;10.88;57.89;101298.84;5096017;28;20086;-72
2023/04/21 02:51:53;;;;;;;11.70;8.75;;;;;;;10.88;58.04;101293.47;5099095;28;20048;-68
2023/04/21 02:54:21;;;;;;;13.45;9.85;;;;;;;10.87;57.69;101291.81;5100037;28;20051;-67
2023/04/21 02:56:49;;;;;;;13.32;9.82;;;;;;;10.88;58.42;101293.47;5098305;28;20048;-67
2023/04/21 02:59:17;;;;;;;14.95;9.32;;;;;;;10.86;58.49;101287.47;5099864;28;20048;-67
2023/04/21 03:01:47;;;;;;;15.60;9.75;;;;;;;10.77;58.22;101278.81;5112041;28;20116;-67
2023/04/21 03:04:18;;;;;;;14.40;10.43;;;;;;;10.85;57.94;101291.19;5099435;28;20116;-67
2023/04/21 03:06:46;;;;;;;14.80;10.02;;;;;;;10.84;58.06;101287.69;5107756;28;20059;-67
2023/04/21 03:09:14;;;;;;;13.45;9.38;;;;;;;10.84;58.25;101287.69;5110062;28;20079;-67
2023/04/21 03:11:42;;;;;;;14.20;10.00;;;;;;;10.80;58.06;101283.75;5103448;28;20251;-67
2023/04/21 03:14:09;;;;;;;14.77;10.27;;;;;;;10.84;58.17;101286.84;5103940;28;20070;-66
2023/04/21 03:16:37;;;;;;;13.27;9.68;;;;;;;10.84;57.92;101290.38;5096359;28;20127;-66
2023/04/21 03:19:05;;;;;;;15.05;10.70;;;;;;;10.83;58.07;101286.03;5089872;28;20097;-67
2023/04/21 03:21:36;;;;;;;15.07;10.55;;;;;;;10.82;58.01;101284.38;5098857;28;20064;-67
2023/04/21 03:24:06;;;;;;;16.40;10.77;;;;;;;10.82;58.22;101281.69;5104978;28;20479;-67
2023/04/21 03:26:33;;;;;;;14.25;10.25;;;;;;;10.82;58.19;101288.94;5099712;28;20063;-67
2023/04/21 03:29:01;;;;;;;14.13;10.20;;;;;;;10.81;58.11;101295.34;5109925;28;20496;-67
2023/04/21 03:31:29;;;;;;;13.15;9.30;;;;;;;10.80;57.95;101288.31;5096557;28;20060;-67
2023/04/21 03:33:57;;;;;;;13.63;10.13;;;;;;;10.79;58.00;101284.81;5100721;28;20069;-67
2023/04/21 03:36:24;;;;;;;13.50;10.25;;;;;;;10.81;58.04;101287.28;5100962;28;20690;-68
2023/04/21 03:38:53;;;;;;;14.30;9.40;;;;;;;10.79;58.16;101290.19;5093489;28;20377;-68
2023/04/21 03:41:24;;;;;;;12.77;10.18;;;;;;;10.76;58.25;101283.34;5100056;28;20066;-68
2023/04/21 03:43:52;;;;;;;14.48;10.93;;;;;;;10.77;58.19;101290.38;5106380;28;20040;-68
2023/04/21 03:46:20;;;;;;;15.93;10.52;;;;;;;10.77;58.32;101287.69;5104856;28;20532;-68
2023/04/21 03:48:48;;;;;;;14.18;10.88;;;;;;;10.78;58.28;101285.84;5099579;28;20075;-68
2023/04/21 03:51:16;;;;;;;16.83;11.40;;;;;;;10.76;58.10;101282.53;5096619;28;20044;-67
2023/04/21 03:53:44;;;;;;;13.38;10.20;;;;;;;10.78;57.82;101288.53;5089336;28;20352;-68
2023/04/21 03:56:13;;;;;;;14.52;10.48;;;;;;;10.76;57.84;101283.34;5094171;28;20267;-68
2023/04/21 03:58:41;;;;;;;16.33;10.13;;;;;;;10.78;58.23;101293.91;5092973;28;20072;-68
2023/04/21 04:01:08;;;;;;;15.85;11.65;;;;;;;10.75;58.31;101286.25;5090495;28;20055;-68
2023/04/21 04:03:36;;;;;;;14.60;10.20;;;;;;;10.76;58.14;101280.66;5096171;28;20075;-67
2023/04/21 04:06:05;;;;;;;15.02;10.93;;;;;;;10.76;58.16;101282.53;5102668;28;21126;-67
2023/04/21 04:08:32;;;;;;;16.40;11.07;;;;;;;10.77;58.44;101278.81;5111481;28;20055;-67
2023/04/21 04:11:00;;;;;;;15.90;11.32;;;;;;;10.76;58.11;101282.53;5094528;28;20471;-67
2023/04/21 04:13:29;;;;;;;15.43;11.15;;;;;;;10.76;58.31;101277.97;5102551;28;20127;-67
2023/04/21 04:15:57;;;;;;;16.15;11.60;;;;;;;10.77;58.67;101274.25;5102802;28;20044;-68
2023/04/21 04:18:25;;;;;;;15.27;11.23;;;;;;;10.75;58.33;101272.81;5100648;28;20108;-68
2023/04/21 04:20:53;;;;;;;15.55;11.30;;;;;;;10.73;58.15;101267.66;5088427;28;20166;-68
2023/04/21 04:23:21;;;;;;;15.50;10.95;;;;;;;10.75;58.33;101265.59;5102631;28;20051;-67
2023/04/21 04:25:50;;;;;;;16.67;11.52;;;;;;;10.75;58.53;101265.59;5096728;28;20098;-68
2023/04/21 04:28:18;;;;;;;16.83;12.30;;;;;;;10.75;58.46;101262.91;5099603;28;20044;-67
2023/04/21 04:30:47;;;;;;;15.68;12.13;;;;;;;10.73;58.53;101270.34;5102255;28;20131;-68
2023/04/21 04:33:15;;;;;;;16.55;11.85;;;;;;;10.75;58.59;101278.19;5099143;28;20158;-68
2023/04/21 04:35:43;;;;;;;14.98;11.13;;;;;;;10.73;58.26;101280.28;5099715;28;20094;-68
2023/04/21 04:38:11;;;;;;;18.15;12.07;;;;;;;10.73;58.41;101278.41;5093427;28;20094;-68
2023/04/21 04:40:39;;;;;;;18.38;12.65;;;;;;;10.74;58.53;101279.22;5101568;28;20204;-68
2023/04/21 04:43:07;;;;;;;20.73;12.95;;;;;;;10.64;58.73;101266.25;5110906;28;20075;-68
2023/04/21 04:45:36;;;;;;;19.80;13.15;;;;;;;10.73;58.41;101280.28;5100625;28;20040;-67
2023/04/21 04:48:06;;;;;;;20.23;13.77;;;;;;;10.73;58.77;101285.66;5099602;28;20414;-67
2023/04/21 04:50:34;;;;;;;19.65;13.95;;;;;;;10.72;58.67;101275.94;5093482;28;20127;-67
2023/04/21 04:53:02;;;;;;;20.08;13.65;;;;;;;10.72;58.75;101273.25;5098755;28;20071;-66
2023/04/21 04:55:29;;;;;;;19.50;14.20;;;;;;;10.71;58.96;101280.47;5094683;28;20048;-67
2023/04/21 04:57:57;;;;;;;21.10;15.27;;;;;;;10.70;58.90;101278.84;5096862;28;20052;-67
2023/04/21 05:00:25;;;;;;;21.40;14.68;;;;;;;10.69;58.97;101279.88;4744944;28;10000536;-66
2023/04/21 05:02:53;;;;;;;21.08;14.57;;;;;;;10.71;59.03;101285.03;5094624;28;20497;-67
2023/04/21 05:05:23;;;;;;;22.45;15.93;;;;;;;10.70;58.90;101284.22;5092565;28;20044;-64
2023/04/21 05:07:51;;;;;;;23.52;15.45;;;;;;;10.70;58.96;101283.38;5100064;28;20161;-65
2023/04/21 05:10:19;;;;;;;22.50;16.13;;;;;;;10.70;58.79;101292.28;5092527;28;20458;-65
2023/04/21 05:12:47;;;;;;;25.40;16.75;;;;;;;10.69;58.82;101287.94;5085250;28;20078;-64
2023/04/21 05:15:14;;;;;;;23.63;15.85;;;;;;;10.70;58.99;101288.75;5088607;28;20092;-64
2023/04/21 05:17:42;;;;;;;24.05;16.85;;;;;;;10.60;59.08;101277.63;5086976;28;20063;-64
2023/04/21 05:20:10;;;;;;;28.60;18.65;;;;;;;10.67;59.04;101292.69;5099682;28;20044;-64
2023/04/21 05:22:40;;;;;;;24.58;17.30;;;;;;;10.68;59.17;101296.22;5088846;28;20833;-64
2023/04/21 05:25:10;;;;;;;25.85;17.27;;;;;;;10.67;59.18;101298.06;5090552;28;20058;-63
2023/04/21 05:27:37;;;;;;;25.85;17.95;;;;;;;10.66;59.33;101306.34;5093918;28;20215;-63
2023/04/21 05:30:06;;;;;;;24.25;17.42;;;;;;;10.66;59.68;101298.28;5091477;28;20082;-63
2023/04/21 05:32:35;;;;;;;24.73;17.27;;;;;;;10.65;59.29;101299.31;5095685;28;20584;-63
2023/04/21 05:35:03;;;;;;;27.13;17.80;;;;;;;10.65;59.51;101293.94;5091062;28;20423;-63
2023/04/21 05:37:31;;;;;;;26.20;17.60;;;;;;;10.65;59.14;101299.31;5091684;28;20537;-62
2023/04/21 05:40:00;;;;;;;26.73;18.88;;;;;;;10.66;59.57;101290.22;5096550;28;20363;-63
2023/04/21 05:42:28;;;;;;;29.98;18.60;;;;;;;10.65;59.42;101296.63;5092853;28;20052;-64
2023/04/21 05:44:56;;;;;;;22.77;17.20;;;;;;;10.65;58.87;101308.22;5095521;28;20044;-65
2023/04/21 05:47:24;;;;;;;25.08;18.13;;;;;;;10.66;59.36;101307.19;5092461;28;20102;-64
2023/04/21 05:49:52;;;;;;;25.92;18.50;;;;;;;10.66;59.43;101314.41;5086850;28;20048;-65
2023/04/21 05:52:21;;;;;;;25.30;17.35;;;;;;;10.65;59.43;101310.06;5092430;28;20072;-63
2023/04/21 05:54:48;;;;;;;28.45;17.60;;;;;;;10.67;59.35;101318.75;5089074;28;20091;-63
2023/04/21 05:57:18;;;;;;;25.00;17.67;;;;;;;10.65;59.57;101318.13;5092163;28;20044;-61
2023/04/21 05:59:45;;;;;;;23.48;16.73;;;;;;;10.66;59.40;101314.41;5094567;28;20089;-64
2023/04/21 06:02:13;;;;;;;26.35;18.10;;;;;;;10.65;59.20;101302.00;5093077;28;20167;-63
2023/04/21 06:04:41;;;;;;;26.17;17.38;;;;;;;10.65;59.02;101300.16;5093194;28;20075;-63
2023/04/21 06:07:12;;;;;;;25.73;17.80;;;;;;;10.65;59.33;101299.31;5090623;28;20055;-63
2023/04/21 06:09:40;;;;;;;26.77;17.30;;;;;;;10.65;59.33;101300.16;5087975;28;20490;-63
2023/04/21 06:12:08;;;;;;;21.45;16.10;;;;;;;10.66;59.09;101295.59;5084179;28;20070;-64
2023/04/21 06:14:37;;;;;;;24.17;15.98;;;;;;;10.65;59.27;101297.47;5094279;28;20052;-62
2023/04/21 06:17:05;;;;;;;22.75;16.02;;;;;;;10.68;59.00;101302.41;5095467;28;20068;-61
2023/04/21 06:19:37;;;;;;;25.30;17.13;;;;;;;10.69;59.21;101295.16;5085535;28;20147;-62
2023/04/21 06:22:05;;;;;;;23.10;16.50;;;;;;;10.68;59.55;101301.59;5095696;28;20556;-63
2023/04/21 06:24:32;;;;;;;23.55;17.25;;;;;;;10.68;59.37;101299.72;5095176;28;20404;-63
2023/04/21 06:27:01;;;;;;;24.42;16.98;;;;;;;10.71;59.36;101295.78;5096053;28;20275;-61
2023/04/21 06:29:28;;;;;;;23.02;16.17;;;;;;;10.72;59.41;101300.94;5083506;28;20071;-62
2023/04/21 06:31:58;;;;;;;24.85;17.20;;;;;;;10.72;59.52;101298.25;5090971;28;20056;-62
2023/04/21 06:34:25;;;;;;;24.20;16.63;;;;;;;10.73;59.38;101305.28;5090287;28;20048;-62
2023/04/21 06:36:53;;;;;;;23.60;15.48;;;;;;;10.74;59.38;101306.13;5080899;28;20048;-62
2023/04/21 06:39:21;;;;;;;22.65;15.80;;;;;;;10.76;59.29;101298.66;5086001;28;20056;-62
2023/04/21 06:41:48;;;;;;;22.77;15.32;;;;;;;10.77;59.38;101303.00;5090424;28;20079;-63
2023/04/21 06:44:16;;;;;;;23.33;15.85;;;;;;;10.78;59.33;101301.97;5089295;28;20071;-63
2023/04/21 06:46:46;;;;;;;23.42;16.25;;;;;;;10.77;59.32;101295.75;5085567;28;20053;-62
2023/04/21 06:49:15;;;;;;;21.80;15.43;;;;;;;10.78;59.81;101304.66;5093573;28;20049;-63
2023/04/21 06:51:43;;;;;;;23.52;16.02;;;;;;;10.79;59.61;101306.31;5097675;28;20058;-62
2023/04/21 06:54:10;;;;;;;22.20;15.38;;;;;;;10.81;59.63;101306.09;5096199;28;20052;-62
2023/04/21 06:56:40;;;;;;;21.90;15.20;;;;;;;10.84;59.48;101302.97;5094825;28;20055;-62
2023/04/21 06:59:08;;;;;;;22.00;15.35;;;;;;;10.83;59.22;101301.34;5100078;28;20048;-62
2023/04/21 07:01:35;;;;;;;20.90;14.32;;;;;;;10.84;59.36;101294.91;5095808;28;20048;-62
2023/04/21 07:04:04;;;;;;;19.85;14.48;;;;;;;10.86;59.60;101295.53;5098155;28;20496;-62
2023/04/21 07:06:34;;;;;;;19.02;14.30;;;;;;;10.86;59.51;101293.66;5089933;28;20078;-62
2023/04/21 07:09:02;;;;;;;20.05;13.40;;;;;;;10.91;59.31;101304.63;5095964;28;20119;-62
2023/04/21 07:11:30;;;;;;;18.02;13.38;;;;;;;10.91;59.47;101299.22;5097975;28;20083;-62
2023/04/21 07:14:00;;;;;;;20.60;14.50;;;;;;;10.93;59.62;101302.53;5097228;28;20086;-63
2023/04/21 07:16:27;;;;;;;17.95;12.82;;;;;;;10.98;59.18;101302.72;5089654;28;20053;-62
2023/04/21 07:18:55;;;;;;;19.52;13.80;;;;;;;10.98;59.38;101301.91;5096128;28;20121;-62
2023/04/21 07:21:23;;;;;;;16.73;12.57;;;;;;;10.98;59.27;101302.72;5092953;28;20148;-62
2023/04/21 07:23:52;;;;;;;17.98;13.35;;;;;;;10.97;59.24;101297.56;5096066;28;20560;-62
2023/04/21 07:26:20;;;;;;;18.98;13.32;;;;;;;10.98;59.39;101307.28;5093387;28;20040;-62
2023/04/21 07:28:49;;;;;;;17.45;12.55;;;;;;;10.98;59.46;101301.91;5097275;28;20052;-62
2023/04/21 07:31:17;;;;;;;19.25;12.82;;;;;;;10.97;59.39;101297.56;5100926;28;20086;-62
2023/04/21 07:33:44;;;;;;;17.17;13.02;;;;;;;10.94;59.46;101296.13;5093665;28;20335;-63
2023/04/21 07:36:12;;;;;;;16.70;12.30;;;;;;;10.95;59.54;101296.94;5091559;28;20244;-63
2023/04/21 07:38:42;;;;;;;18.33;12.95;;;;;;;10.98;59.75;101291.97;5093734;28;20127;-63
2023/04/21 07:41:11;;;;;;;19.95;13.25;;;;;;;10.98;59.50;101299.22;5096922;28;20326;-63
2023/04/21 07:43:39;;;;;;;18.38;13.18;;;;;;;10.98;59.90;101293.81;5098630;28;20047;-63
2023/04/21 07:46:07;;;;;;;19.08;13.00;;;;;;;10.98;59.92;101291.97;5090809;28;20115;-63
2023/04/21 07:48:35;;;;;;;17.17;12.50;;;;;;;10.97;60.01;101298.38;5093719;28;20069;-63
2023/04/21 07:51:03;;;;;;;17.42;12.70;;;;;;;10.98;60.23;101301.91;5094723;28;20048;-63
2023/04/21 07:53:31;;;;;;;18.33;12.98;;;;;;;10.99;60.15;101290.09;5094134;28;20090;-63
2023/04/21 07:55:59;;;;;;;16.85;12.63;;;;;;;11.00;60.25;101297.13;5094760;28;20052;-65
2023/04/21 07:58:28;;;;;;;17.38;12.85;;;;;;;11.00;60.21;101294.44;5095648;28;20055;-63
2023/04/21 08:00:56;;;;;;;17.83;12.73;;;;;;;11.00;60.45;101295.25;5092117;28;20172;-63
2023/04/21 08:03:23;;;;;;;17.58;12.93;;;;;;;11.02;60.37;101293.19;5087827;28;20044;-63
2023/04/21 08:05:51;;;;;;;15.93;12.38;;;;;;;11.03;60.32;101291.31;5087904;28;20509;-63
2023/04/21 08:08:20;;;;;;;17.15;12.18;;;;;;;11.05;60.31;101289.25;5083450;28;20051;-63
2023/04/21 08:10:48;;;;;;;18.98;12.43;;;;;;;11.06;60.23;101304.34;5087200;28;20044;-63
2023/04/21 08:13:16;;;;;;;15.82;11.60;;;;;;;11.07;60.22;101292.53;4734581;28;9999930;-63
2023/04/21 08:15:45;;;;;;;17.42;11.75;;;;;;;11.09;60.22;101282.41;5085240;28;20040;-63
2023/04/21 08:18:15;;;;;;;17.25;11.80;;;;;;;11.12;60.28;101284.66;5091081;28;20119;-63
2023/04/21 08:20:46;;;;;;;16.92;12.75;;;;;;;11.13;60.67;101282.78;5094130;28;20063;-63
2023/04/21 08:23:14;;;;;;;16.08;12.52;;;;;;;11.16;60.29;101279.69;5082970;28;20086;-63
2023/04/21 08:25:42;;;;;;;14.57;11.60;;;;;;;11.17;60.00;101282.16;5095955;28;20062;-63
2023/04/21 08:28:10;;;;;;;16.08;12.55;;;;;;;11.19;60.31;101284.63;5096332;28;20367;-61
2023/04/21 08:30:38;;;;;;;16.08;12.13;;;;;;;11.20;60.33;101281.72;5104405;28;20465;-64
2023/04/21 08:33:12;;;;;;;14.10;11.88;;;;;;;11.22;60.36;101282.31;5096401;28;20469;-62
2023/04/21 08:35:40;;;;;;;16.23;11.88;;;;;;;11.24;60.25;101276.72;5089393;28;20048;-62
2023/04/21 08:38:28;;;;;;;15.45;11.70;;;;;;;11.27;60.31;101273.63;5099459;28;20078;-62
2023/04/21 08:40:58;;;;;;;14.68;10.88;;;;;;;11.31;60.24;101274.84;5096734;28;20481;-62
2023/04/21 08:43:26;;;;;;;15.18;11.45;;;;;;;11.33;60.35;101273.56;5089892;28;20450;-64
2023/04/21 08:45:54;;;;;;;16.17;10.85;;;;;;;11.37;60.15;101273.97;5085152;28;20048;-64
2023/04/21 08:48:26;;;;;;;15.30;10.70;;;;;;;11.41;60.29;101272.50;5088274;28;20355;-64
2023/04/21 08:50:53;;;;;;;14.52;10.45;;;;;;;11.49;60.22;101279.47;5093863;28;20048;-63
2023/04/21 08:53:21;;;;;;;13.63;9.75;;;;;;;11.63;59.88;101265.72;5093512;28;20058;-63
2023/04/21 08:55:53;;;;;;;15.07;10.23;;;;;;;11.83;59.37;101273.66;5095627;28;20436;-64
2023/04/21 08:58:37;;;;;;;13.15;9.98;;;;;;;12.14;58.47;101258.44;5087064;28;20158;-64
2023/04/21 09:01:05;;;;;;;12.52;9.48;;;;;;;12.44;57.83;101259.38;5092109;28;20427;-64
2023/04/21 09:03:34;;;;;;;12.20;9.10;;;;;;;12.69;57.03;101251.22;5091015;28;20147;-64
2023/04/21 09:06:04;;;;;;;11.15;9.15;;;;;;;12.94;55.93;101251.94;5092758;28;20053;-64
2023/04/21 09:08:33;;;;;;;13.18;9.10;;;;;;;13.16;55.48;101249.59;5086475;28;20048;-64
2023/04/21 09:11:01;;;;;;;14.63;9.30;;;;;;;13.34;55.25;101246.03;5093891;28;20055;-64
2023/04/21 09:13:30;;;;;;;12.10;8.98;;;;;;;13.61;54.61;101246.44;5086983;28;20052;-64
2023/04/21 09:15:59;;;;;;;11.52;9.27;;;;;;;13.68;53.96;101247.97;5094446;28;20071;-63
2023/04/21 09:18:33;;;;;;;11.32;8.60;;;;;;;13.62;54.49;101248.91;5094952;28;20047;-64
2023/04/21 09:21:08;;;;;;;12.50;8.15;;;;;;;13.45;54.74;101241.72;5089882;28;20051;-64
2023/04/21 09:23:43;;;;;;;11.40;8.00;;;;;;;13.18;55.24;101230.47;5090902;28;20052;-63
2023/04/21 09:26:12;;;;;;;12.65;8.65;;;;;;;13.08;55.89;101238.28;5088581;28;20051;-64
2023/04/21 09:28:43;;;;;;;11.65;8.93;;;;;;;12.93;56.26;101235.97;5088753;28;20427;-63
2023/04/21 09:31:16;;;;;;;11.02;8.05;;;;;;;12.71;56.87;101232.94;5090492;28;20048;-63
2023/04/21 09:33:48;;;;;;;11.38;7.80;;;;;;;12.68;57.85;101249.56;5092749;28;20052;-64
2023/04/21 09:36:21;;;;;;;10.25;7.78;;;;;;;12.59;57.50;101250.91;5089883;28;20063;-63
2023/04/21 09:38:55;;;;;;;9.98;7.85;;;;;;;12.50;57.82;101246.88;5092904;28;20062;-63
2023/04/21 09:41:44;;;;;;;10.07;7.72;;;;;;;12.49;58.34;101245.22;5087785;28;20053;-64
2023/04/21 09:44:12;;;;;;;10.85;8.05;;;;;;;12.44;58.54;101242.38;5094607;28;20064;-64
2023/04/21 09:46:43;;;;;;;10.40;7.97;;;;;;;12.38;58.65;101238.72;5093690;28;20052;-64
2023/04/21 09:49:13;;;;;;;9.70;7.30;;;;;;;12.36;58.78;101248.91;5092151;28;20059;-64
2023/04/21 09:51:43;;;;;;;12.50;8.43;;;;;;;12.34;58.86;101234.81;5093902;28;20082;-64
2023/04/21 09:54:32;;;;;;;12.48;7.80;;;;;;;12.32;58.96;101239.59;5094633;28;20337;-65
2023/04/21 09:57:03;;;;;;;11.02;8.35;;;;;;;12.32;59.01;101229.66;5091818;28;20052;-65
2023/04/21 09:59:36;;;;;;;10.48;7.57;;;;;;;12.40;59.05;101231.22;5084019;28;20060;-61
2023/04/21 10:02:06;;;;;;;10.52;7.30;;;;;;;12.39;59.32;101233.09;5094727;28;20344;-64
2023/04/21 10:04:36;;;;;;;10.93;8.10;;;;;;;12.41;59.42;101226.66;5092416;28;20052;-63
2023/04/21 10:07:06;;;;;;;8.88;6.22;;;;;;;12.67;59.52;101218.25;5093804;28;20043;-64
2023/04/21 10:09:40;;;;;;;9.18;6.10;;;;;;;12.64;59.68;101221.41;5088990;28;20358;-64
2023/04/21 10:12:08;;;;;;;14.82;7.95;;;;;;;12.58;59.32;101222.31;5088262;28;20381;-66
2023/04/21 10:14:36;;;;;;;14.20;8.93;;;;;;;12.62;59.61;101220.81;5098749;28;20440;-63
2023/04/21 10:17:06;;;;;;;9.77;7.65;;;;;;;12.60;59.71;101214.81;5099955;28;20076;-66
2023/04/21 10:19:38;;;;;;;15.27;7.82;;;;;;;12.60;59.51;101207.56;5096888;28;20047;-65
2023/04/21 10:22:08;;;;;;;9.88;7.13;;;;;;;12.60;59.51;101209.44;5109291;28;20120;-67
2023/04/21 10:24:38;;;;;;;11.55;7.57;;;;;;;12.59;59.63;101205.09;5098557;28;20040;-65
2023/04/21 10:27:09;;;;;;;11.15;8.00;;;;;;;12.60;59.90;101204.03;5094684;28;20048;-64
2023/04/21 10:29:38;;;;;;;9.45;6.60;;;;;;;12.62;59.74;101196.53;5095529;28;20048;-68
2023/04/21 10:32:40;;;;;;;9.70;6.85;;;;;;;12.65;59.87;101190.69;5100725;28;20048;-66
2023/04/21 10:35:10;;;;;;;13.77;7.13;;;;;;;12.68;59.77;101192.94;5090480;28;20040;-66
2023/04/21 10:37:40;;;;;;;9.43;6.70;;;;;;;12.70;59.97;101188.16;5094789;28;20048;-66
2023/04/21 10:40:35;;;;;;;10.00;6.95;;;;;;;12.71;59.84;101184.41;5089133;28;20068;-64
2023/04/21 10:43:05;;;;;;;11.07;6.70;;;;;;;12.76;59.61;101172.94;5101752;28;20048;-65
2023/04/21 10:45:33;;;;;;;10.35;7.30;;;;;;;12.78;59.73;101177.03;5096387;28;20051;-65
2023/04/21 10:48:02;;;;;;;8.88;6.50;;;;;;;12.80;60.05;101177.63;5101185;28;20032;-66
2023/04/21 10:50:31;;;;;;;9.35;6.40;;;;;;;12.88;60.25;101176.50;5095067;28;20045;-64
2023/04/21 10:53:10;;;;;;;9.13;6.90;;;;;;;12.90;60.02;101175.22;5085252;28;20218;-64
2023/04/21 10:55:41;;;;;;;9.50;6.75;;;;;;;12.91;60.16;101160.69;5093812;28;20051;-64
2023/04/21 10:58:09;;;;;;;9.00;6.70;;;;;;;12.95;59.85;101166.44;5095956;28;20068;-65
2023/04/21 11:00:38;;;;;;;11.60;6.80;;;;;;;13.02;60.05;101164.47;5091970;28;20055;-66
2023/04/21 11:03:07;;;;;;;11.07;7.55;;;;;;;13.02;59.70;101167.97;5098050;28;20043;-67
2023/04/21 11:05:39;;;;;;;8.23;6.85;;;;;;;13.02;59.68;101156.38;5095361;28;20043;-66
2023/04/21 11:08:13;;;;;;;8.98;6.72;;;;;;;13.06;59.64;101162.13;5093561;28;20045;-66
2023/04/21 11:10:55;;;;;;;8.00;6.15;;;;;;;13.34;60.61;101152.38;5104490;28;20048;-63
2023/04/21 11:13:25;;;;;;;11.18;7.80;;;;;;;13.27;60.66;101145.44;5098874;28;20071;-67
2023/04/21 11:15:57;;;;;;;10.50;7.63;;;;;;;13.25;60.03;101137.56;5094587;28;20147;-68
2023/04/21 11:18:42;;;;;;;10.07;7.22;;;;;;;13.15;60.02;101125.66;5100580;28;20099;-68
2023/04/21 11:21:16;;;;;;;10.93;7.75;;;;;;;13.23;60.20;101130.75;5094433;28;20059;-70
2023/04/21 11:23:53;;;;;;;12.18;7.40;;;;;;;13.26;60.34;101128.41;5090485;28;20052;-71